Time;durP1;ratioP1;P1;durP2;ratioP2;P2;SDS_P1;SDS_P2;PMS_P1;PMS_P2;Temp;Humidity;BMP_temperature;BMP_pressure;BME280_temperature;BME280_humidity;BME280_pressure;Samples;Min_cycle;Max_cycle;Signal;HPM_P1;HPM_P2
2022/05/22 00:02:05;;;;;;;;;;;;;;;-140.72;100.00;52715.53;4996239;28;19917;-67
2022/05/22 00:04:30;;;;;;;;;;;;;;;-140.72;100.00;52741.91;4995964;28;20258;-66
2022/05/22 00:06:56;;;;;;;;;;;;;;;-140.72;100.00;52743.94;4996921;28;20378;-67
2022/05/22 00:09:21;;;;;;;;;;;;;;;-140.72;100.00;52778.44;4979448;28;20353;-67
2022/05/22 00:11:47;;;;;;;;;;;;;;;-140.72;100.00;52721.63;4979640;28;19941;-67
2022/05/22 00:14:13;;;;;;;;;;;;;;;-140.72;100.00;52745.97;4979184;28;19925;-67
2022/05/22 00:16:41;;;;;;;;;;;;;;;-140.72;100.00;52717.56;4996866;28;19918;-67
2022/05/22 00:19:07;;;;;;;;;;;;;;;-140.72;100.00;52719.59;4996563;28;19939;-67
2022/05/22 00:21:32;;;;;;;;;;;;;;;-140.72;100.00;52745.97;4995801;28;20009;-67
2022/05/22 00:23:58;;;;;;;;;;;;;;;-140.72;100.00;52711.47;4976467;28;20366;-68
2022/05/22 00:26:23;;;;;;;;;;;;;;;-140.72;100.00;52741.91;4959210;28;19957;-67
2022/05/22 00:28:51;;;;;;;;;;;;;;;-140.72;100.00;52752.06;4976668;28;19969;-69
2022/05/22 00:31:29;;;;;;;;;;;;;;;-140.72;100.00;52727.72;4982865;28;19968;-68
2022/05/22 00:33:55;;;;;;;;;;;;;;;-140.72;100.00;52739.88;4995738;28;20012;-67
2022/05/22 00:36:20;;;;;;;;;;;;;;;-140.72;100.00;52707.41;4978473;28;20001;-67
2022/05/22 00:38:45;;;;;;;;;;;;;;;-140.72;100.00;52776.41;4978662;28;20373;-68
2022/05/22 00:41:11;;;;;;;;;;;;;;;-140.72;100.00;52758.16;4978623;28;20443;-67
2022/05/22 00:43:38;;;;;;;;;;;;;;;-140.72;100.00;52731.75;4996452;28;19918;-68
2022/05/22 00:46:05;;;;;;;;;;;;;;;-140.72;100.00;52695.25;4996260;28;19924;-68
2022/05/22 00:48:31;;;;;;;;;;;;;;;-140.72;100.00;52770.31;4978240;28;19966;-68
2022/05/22 00:51:02;;;;;;;;;;;;;;;-140.72;100.00;52764.25;4996088;28;20269;-68
2022/05/22 00:53:29;;;;;;;;;;;;;;;-140.72;100.00;52758.16;4996240;28;19918;-67
2022/05/22 00:55:55;;;;;;;;;;;;;;;-140.72;100.00;52756.13;4995824;28;19924;-67
2022/05/22 00:58:22;;;;;;;;;;;;;;;-140.72;100.00;52780.47;4995380;28;20344;-67
2022/05/22 01:00:47;;;;;;;;;;;;;;;-140.72;100.00;52762.22;4977970;28;19917;-68
2022/05/22 01:03:26;;;;;;;;;;;;;;;-140.72;100.00;52731.75;4995878;28;20009;-68
2022/05/22 01:05:52;;;;;;;;;;;;;;;-140.72;100.00;52743.94;4995678;28;19925;-68
2022/05/22 01:08:17;;;;;;;;;;;;;;;-140.72;100.00;52760.19;4978232;28;20013;-67
2022/05/22 01:10:45;;;;;;;;;;;;;;;-140.72;100.00;52764.25;4995368;28;19917;-68
2022/05/22 01:13:14;;;;;;;;;;;;;;;-140.72;100.00;52735.81;4995396;28;19930;-68
2022/05/22 01:15:40;;;;;;;;;;;;;;;-140.72;100.00;52748.00;4995071;28;20450;-67
2022/05/22 01:18:05;;;;;;;;;;;;;;;-140.72;100.00;52752.06;4977775;28;19985;-67
2022/05/22 01:20:31;;;;;;;;;;;;;;;-140.72;100.00;52784.53;4977588;28;19925;-67
2022/05/22 01:22:56;;;;;;;;;;;;;;;-140.72;100.00;52750.03;4995372;28;19964;-67
2022/05/22 01:25:21;;;;;;;;;;;;;;;-140.72;100.00;52766.25;4977403;28;19926;-68
2022/05/22 01:27:47;;;;;;;;;;;;;;;-140.72;100.00;52772.34;4995406;28;19925;-67
2022/05/22 01:30:15;;;;;;;;;;;;;;;-140.72;100.00;52735.81;4977835;28;20020;-68
2022/05/22 01:32:42;;;;;;;;;;;;;;;-140.72;100.00;52713.50;4995609;28;19925;-68
2022/05/22 01:35:08;;;;;;;;;;;;;;;-140.72;100.00;52762.22;4977342;28;19929;-67
2022/05/22 01:37:33;;;;;;;;;;;;;;;-140.72;100.00;52760.19;4994830;28;19925;-68
2022/05/22 01:39:59;;;;;;;;;;;;;;;-140.72;100.00;52768.28;4994903;28;19929;-67
2022/05/22 01:42:24;;;;;;;;;;;;;;;-140.72;100.00;52754.09;4994650;28;19918;-66
2022/05/22 01:44:49;;;;;;;;;;;;;;;-140.72;100.00;52782.50;4994434;28;20365;-68
2022/05/22 01:47:14;;;;;;;;;;;;;;;-140.72;100.00;52772.34;4994324;28;20023;-67
2022/05/22 01:49:39;;;;;;;;;;;;;;;-140.72;100.00;52750.03;4995111;28;20008;-68
2022/05/22 01:52:05;;;;;;;;;;;;;;;-140.72;100.00;52760.19;4994954;28;19917;-68
2022/05/22 01:54:30;;;;;;;;;;;;;;;-140.72;100.00;52752.06;4994667;28;19981;-68
2022/05/22 01:56:55;;;;;;;;;;;;;;;-140.72;100.00;52788.59;4994942;28;19918;-68
2022/05/22 01:59:21;;;;;;;;;;;;;;;-140.72;100.00;52745.97;4994368;28;19921;-67
2022/05/22 02:01:46;;;;;;;;;;;;;;;-140.72;100.00;52727.72;4977358;28;20243;-67
2022/05/22 02:04:11;;;;;;;;;;;;;;;-140.72;100.00;52776.41;4994682;28;20263;-67
2022/05/22 02:08:19;;;;;;;;;;;;;;;-140.72;100.00;52776.41;4994357;28;19924;-68
2022/05/22 02:09:22;;;;;;;;;;;;;;;-140.72;100.00;52790.63;4994523;28;19918;-67
2022/05/22 02:11:47;;;;;;;;;;;;;;;-140.72;100.00;52776.41;4994422;28;19992;-67
2022/05/22 02:14:14;;;;;;;;;;;;;;;-140.72;100.00;52790.63;4994501;28;20691;-68
2022/05/22 02:16:39;;;;;;;;;;;;;;;-140.72;100.00;52817.00;4977065;28;19924;-67
2022/05/22 02:19:04;;;;;;;;;;;;;;;-140.72;100.00;52741.91;4994233;28;19918;-67
2022/05/22 02:21:32;;;;;;;;;;;;;;;-140.72;100.00;52756.13;4994576;28;19921;-67
2022/05/22 02:23:57;;;;;;;;;;;;;;;-140.72;100.00;52737.84;4995173;28;19989;-67
2022/05/22 02:26:22;;;;;;;;;;;;;;;-140.72;100.00;52711.47;4995531;28;19917;-68
2022/05/22 02:28:47;;;;;;;;;;;;;;;-140.72;100.00;52790.63;4980747;28;19925;-68
2022/05/22 02:31:12;;;;;;;;;;;;;;;-140.72;100.00;52756.13;4998338;28;19972;-68
2022/05/22 02:33:38;;;;;;;;;;;;;;;-140.72;100.00;52762.22;5006062;23;21071;-67
2022/05/22 02:36:06;;;;;;;;;;;;;;;-140.72;100.00;52729.75;4946435;29;19926;-67
2022/05/22 02:39:00;;;;;;;;;;;;;;;-140.72;100.00;52758.16;4955793;29;20370;-68
2022/05/22 02:41:25;;;;;;;;;;;;;;;-140.72;100.00;52741.91;4958125;28;20366;-68
2022/05/22 02:43:57;;;;;;;;;;;;;;;-140.72;100.00;52780.47;4959299;29;19919;-67
2022/05/22 02:46:22;;;;;;;;;;;;;;;-140.72;100.00;52739.88;4957996;29;19926;-67
2022/05/22 02:48:47;;;;;;;;;;;;;;;-140.72;100.00;52756.13;4941331;29;19926;-68
2022/05/22 02:51:15;;;;;;;;;;;;;;;-140.72;100.00;52778.44;4958536;29;19972;-67
2022/05/22 02:53:40;;;;;;;;;;;;;;;-140.72;100.00;52786.56;4958469;29;19919;-67
2022/05/22 02:59:12;;;;;;;;;;;;;;;-140.72;100.00;52745.97;4958463;29;19961;-67
2022/05/22 03:01:37;;;;;;;;;;;;;;;-140.72;100.00;52776.41;4941169;29;20005;-67
2022/05/22 03:04:02;;;;;;;;;;;;;;;-140.72;100.00;52780.47;4958279;29;20400;-67
2022/05/22 03:06:39;;;;;;;;;;;;;;;-140.72;100.00;52796.72;4958193;29;19966;-67
2022/05/22 03:09:12;;;;;;;;;;;;;;;-140.72;100.00;52780.47;4958151;29;19922;-67
2022/05/22 03:11:39;;;;;;;;;;;;;;;-140.72;100.00;52768.28;4940826;29;20190;-67
2022/05/22 03:14:04;;;;;;;;;;;;;;;-140.72;100.00;52756.13;4941012;29;19918;-68
2022/05/22 03:16:29;;;;;;;;;;;;;;;-140.72;100.00;52752.06;4940881;29;20386;-68
2022/05/22 03:18:55;;;;;;;;;;;;;;;-140.72;100.00;52768.28;4958130;29;19941;-68
2022/05/22 03:21:20;;;;;;;;;;;;;;;-140.72;100.00;52806.84;4941023;29;19977;-68
2022/05/22 03:23:45;;;;;;;;;;;;;;;-140.72;100.00;52776.41;4940808;29;19919;-68
2022/05/22 03:26:10;;;;;;;;;;;;;;;-140.72;100.00;52752.06;4940825;29;19919;-68
2022/05/22 03:28:36;;;;;;;;;;;;;;;-140.72;100.00;52766.25;4957939;29;19981;-68
2022/05/22 03:31:01;;;;;;;;;;;;;;;-140.72;100.00;52772.34;4940570;29;19919;-68
2022/05/22 03:33:27;;;;;;;;;;;;;;;-140.72;100.00;52770.31;4940010;28;20366;-68
2022/05/22 03:35:52;;;;;;;;;;;;;;;-140.72;100.00;52739.88;4958387;29;19922;-67
2022/05/22 03:38:17;;;;;;;;;;;;;;;-140.72;100.00;52819.03;4957490;28;19925;-68
2022/05/22 03:40:47;;;;;;;;;;;;;;;-140.72;100.00;52770.31;4957605;29;20414;-69
2022/05/22 03:43:16;;;;;;;;;;;;;;;-140.72;100.00;52754.09;4940355;29;19918;-68
2022/05/22 03:45:42;;;;;;;;;;;;;;;-140.72;100.00;52790.63;4957698;29;19919;-68
2022/05/22 03:48:07;;;;;;;;;;;;;;;-140.72;100.00;52768.28;4957659;29;20374;-69
2022/05/22 03:50:33;;;;;;;;;;;;;;;-140.72;100.00;52756.13;4957856;29;19922;-67
2022/05/22 03:52:58;;;;;;;;;;;;;;;-140.72;100.00;52778.44;4940417;29;19926;-68
2022/05/22 03:55:23;;;;;;;;;;;;;;;-140.72;100.00;52778.44;4940186;29;19922;-68
2022/05/22 03:57:49;;;;;;;;;;;;;;;-140.72;100.00;52758.16;4957500;29;19922;-69
2022/05/22 04:00:15;;;;;;;;;;;;;;;-140.72;100.00;52766.25;4940140;29;19962;-68
2022/05/22 04:02:40;;;;;;;;;;;;;;;-140.72;100.00;52741.91;4957376;29;19946;-68
2022/05/22 04:05:08;;;;;;;;;;;;;;;-140.72;100.00;52745.97;4940338;29;19919;-68
2022/05/22 04:07:37;;;;;;;;;;;;;;;-140.72;100.00;52735.81;4939984;29;19922;-68
2022/05/22 04:10:03;;;;;;;;;;;;;;;-140.72;100.00;52764.25;4957609;29;20387;-68
2022/05/22 04:12:28;;;;;;;;;;;;;;;-140.72;100.00;52707.41;4951959;29;19949;-68
2022/05/22 04:14:53;;;;;;;;;;;;;;;-140.72;100.00;52776.41;4942808;29;19999;-68
2022/05/22 04:17:18;;;;;;;;;;;;;;;-140.72;100.00;52752.06;4925352;29;20016;-68
2022/05/22 04:19:44;;;;;;;;;;;;;;;-140.72;100.00;52756.13;4927601;29;20026;-68
2022/05/22 04:22:09;;;;;;;;;;;;;;;-140.72;100.00;52756.13;4944753;29;19925;-68
2022/05/22 04:27:18;;;;;;;;;;;;;;;-140.72;100.00;52745.97;4942492;29;19934;-68
2022/05/22 04:29:43;;;;;;;;;;;;;;;-140.72;100.00;52758.16;4940273;29;19923;-68
2022/05/22 04:32:08;;;;;;;;;;;;;;;-140.72;100.00;52772.34;4932494;29;19925;-68
2022/05/22 04:34:34;;;;;;;;;;;;;;;-140.72;100.00;52739.88;4933793;29;20374;-68
2022/05/22 04:36:59;;;;;;;;;;;;;;;-140.72;100.00;52733.78;4941847;29;20017;-68
2022/05/22 04:39:24;;;;;;;;;;;;;;;-140.72;100.00;52756.13;4936674;29;19919;-68
2022/05/22 04:41:49;;;;;;;;;;;;;;;-140.72;100.00;52756.13;4926364;29;19918;-68
2022/05/22 04:44:15;;;;;;;;;;;;;;;-140.72;100.00;52733.78;4930651;29;19944;-68
2022/05/22 04:46:40;;;;;;;;;;;;;;;-140.72;100.00;52711.47;4937202;29;19919;-68
2022/05/22 04:49:06;;;;;;;;;;;;;;;-140.72;100.00;52733.78;4940661;29;20014;-68
2022/05/22 04:51:31;;;;;;;;;;;;;;;-140.72;100.00;52697.28;4941522;29;19923;-68
2022/05/22 04:53:56;;;;;;;;;;;;;;;-140.72;100.00;52725.69;4946637;29;19919;-68
2022/05/22 04:56:21;;;;;;;;;;;;;;;-140.72;100.00;52699.31;4921960;29;20379;-68
2022/05/22 04:58:47;;;;;;;;;;;;;;;-140.72;100.00;52681.03;4947279;29;19930;-69
2022/05/22 05:01:13;;;;;;;;;;;;;;;-140.72;100.00;52660.75;4931528;29;19957;-69
2022/05/22 05:03:38;;;;;;;;;;;;;;;-140.72;100.00;52662.78;4946876;29;19923;-70
2022/05/22 05:06:04;;;;;;;;;;;;;;;-140.72;100.00;52703.34;4944873;29;20325;-69
2022/05/22 05:08:32;;;;;;;;;;;;;;;-140.72;100.00;52679.00;4943850;29;19926;-69
2022/05/22 05:10:59;;;;;;;;;;;;;;;-140.72;100.00;52723.66;4946381;29;19919;-70
2022/05/22 05:13:25;;;;;;;;;;;;;;;-140.72;100.00;52687.13;4944725;29;20330;-70
2022/05/22 05:16:01;;;;;;;;;;;;;;;-140.72;100.00;52711.47;4943586;29;19941;-70
2022/05/22 05:18:26;;;;;;;;;;;;;;;-140.72;100.00;52727.72;4944834;29;19919;-69
2022/05/22 05:20:52;;;;;;;;;;;;;;;-140.72;100.00;52679.00;4943368;29;19923;-69
2022/05/22 05:23:18;;;;;;;;;;;;;;;-140.72;100.00;52711.47;4942793;29;20260;-71
2022/05/22 05:25:43;;;;;;;;;;;;;;;-140.72;100.00;52719.59;4944576;29;19958;-68
2022/05/22 05:28:08;;;;;;;;;;;;;;;-140.72;100.00;52670.88;4944725;29;19942;-70
2022/05/22 05:30:33;;;;;;;;;;;;;;;-140.72;100.00;52719.59;4946602;29;19926;-70
2022/05/22 05:32:58;;;;;;;;;;;;;;;-140.72;100.00;52679.00;4927773;29;20009;-70
2022/05/22 05:35:24;;;;;;;;;;;;;;;-140.72;100.00;52668.84;4945167;28;19976;-70
2022/05/22 05:37:49;;;;;;;;;;;;;;;-140.72;100.00;52707.41;4943665;29;19918;-69
2022/05/22 05:40:15;;;;;;;;;;;;;;;-140.72;100.00;52695.25;4941444;29;19923;-70
2022/05/22 05:42:40;;;;;;;;;;;;;;;-140.72;100.00;52683.06;4944680;29;19922;-69
2022/05/22 05:45:07;;;;;;;;;;;;;;;-140.72;100.00;52715.53;4944003;29;19926;-69
2022/05/22 05:47:32;;;;;;;;;;;;;;;-140.72;100.00;52660.75;4931276;29;20012;-69
2022/05/22 05:49:58;;;;;;;;;;;;;;;-140.72;100.00;52689.16;4943060;29;20561;-70
2022/05/22 05:52:23;;;;;;;;;;;;;;;-140.72;100.00;52626.25;4941795;29;19933;-69
2022/05/22 05:54:48;;;;;;;;;;;;;;;-140.72;100.00;52624.22;4939636;29;20013;-70
2022/05/22 05:57:14;;;;;;;;;;;;;;;-140.72;100.00;52693.22;4949202;29;19918;-72
2022/05/22 05:59:39;;;;;;;;;;;;;;;-140.72;100.00;52662.78;4922002;29;19919;-70
2022/05/22 06:02:05;;;;;;;;;;;;;;;-140.72;100.00;52687.13;4944019;29;19926;-69
2022/05/22 06:04:30;;;;;;;;;;;;;;;-140.72;100.00;52658.72;4934946;29;19965;-70
2022/05/22 06:06:56;;;;;;;;;;;;;;;-140.72;100.00;52646.53;4949232;29;19918;-69
2022/05/22 06:09:21;;;;;;;;;;;;;;;-140.72;100.00;52618.13;4921576;29;19919;-70
2022/05/22 06:11:46;;;;;;;;;;;;;;;-140.72;100.00;52662.78;4944150;29;20291;-68
2022/05/22 06:14:11;;;;;;;;;;;;;;;-140.72;100.00;52670.88;4946702;29;19930;-69
2022/05/22 06:16:36;;;;;;;;;;;;;;;-140.72;100.00;52632.34;4946590;29;19919;-68
2022/05/22 06:19:02;;;;;;;;;;;;;;;-140.72;100.00;52616.09;4927258;29;19919;-69
2022/05/22 06:21:27;;;;;;;;;;;;;;;-140.72;100.00;52638.41;4945469;29;19919;-69
2022/05/22 06:23:52;;;;;;;;;;;;;;;-140.72;100.00;52610.00;4931775;29;20441;-71
2022/05/22 06:26:17;;;;;;;;;;;;;;;-140.72;100.00;52650.59;4921781;29;19926;-70
2022/05/22 06:28:43;;;;;;;;;;;;;;;-140.72;100.00;52636.38;4935919;29;20389;-70
2022/05/22 06:31:09;;;;;;;;;;;;;;;-140.72;100.00;52660.75;4944939;29;20010;-71
2022/05/22 06:33:34;;;;;;;;;;;;;;;-140.72;100.00;52620.16;4949883;28;20065;-71
2022/05/22 06:36:00;;;;;;;;;;;;;;;-140.72;100.00;52601.91;4948563;29;19918;-70
2022/05/22 06:41:10;;;;;;;;;;;;;;;-140.72;100.00;52622.19;4945370;29;20033;-74
2022/05/22 06:43:35;;;;;;;;;;;;;;;-140.72;100.00;52571.47;4945146;29;19930;-69
2022/05/22 06:46:01;;;;;;;;;;;;;;;-140.72;100.00;52573.50;4935924;29;19919;-74
2022/05/22 06:48:26;;;;;;;;;;;;;;;-140.72;100.00;52630.31;4937851;29;20364;-70
2022/05/22 06:50:51;;;;;;;;;;;;;;;-140.72;100.00;52630.31;4932458;29;19965;-70
2022/05/22 06:53:17;;;;;;;;;;;;;;;-140.72;100.00;52628.28;4932239;29;19918;-70
2022/05/22 06:55:42;;;;;;;;;;;;;;;-140.72;100.00;52605.94;4919135;29;19919;-72
2022/05/22 06:58:08;;;;;;;;;;;;;;;-140.72;100.00;52573.50;4934826;29;19923;-71
2022/05/22 07:00:33;;;;;;;;;;;;;;;-140.72;100.00;52575.50;4918832;29;19954;-71
2022/05/22 07:02:58;;;;;;;;;;;;;;;-140.72;100.00;52561.31;4937256;29;20013;-73
2022/05/22 07:05:24;;;;;;;;;;;;;;;-140.72;100.00;52605.94;4919423;29;19918;-72
2022/05/22 07:07:49;;;;;;;;;;;;;;;-140.72;100.00;52569.44;4941964;29;20002;-70
2022/05/22 07:10:14;;;;;;;;;;;;;;;-140.72;100.00;52587.69;4943769;29;19918;-69
2022/05/22 07:12:40;;;;;;;;;;;;;;;-140.72;100.00;52571.47;4942619;28;19994;-72
2022/05/22 07:15:06;;;;;;;;;;;;;;;-140.72;100.00;52597.84;4933013;29;20026;-69
2022/05/22 07:17:31;;;;;;;;;;;;;;;-140.72;100.00;52569.44;4939609;29;20049;-69
2022/05/22 07:19:57;;;;;;;;;;;;;;;-140.72;100.00;52622.19;4937983;29;20434;-68
2022/05/22 07:22:23;;;;;;;;;;;;;;;-140.72;100.00;52528.84;4939371;29;19977;-70
2022/05/22 07:24:48;;;;;;;;;;;;;;;-140.72;100.00;52597.84;4938268;29;20009;-68
2022/05/22 07:27:14;;;;;;;;;;;;;;;-140.72;100.00;52565.38;4939088;29;19961;-69
2022/05/22 07:29:39;;;;;;;;;;;;;;;-140.72;100.00;52559.28;4937708;28;20405;-69
2022/05/22 07:32:05;;;;;;;;;;;;;;;-140.72;100.00;52565.38;4938880;29;20295;-69
2022/05/22 07:34:30;;;;;;;;;;;;;;;-140.72;100.00;52553.19;4938029;29;20363;-69
2022/05/22 07:36:56;;;;;;;;;;;;;;;-140.72;100.00;52536.97;4938145;29;20009;-69
2022/05/22 07:39:22;;;;;;;;;;;;;;;-140.72;100.00;52522.75;4921366;29;19919;-70
2022/05/22 07:41:47;;;;;;;;;;;;;;;-140.72;100.00;52545.06;4937155;29;19926;-69
2022/05/22 07:44:12;;;;;;;;;;;;;;;-140.72;100.00;52506.53;4937313;29;19973;-68
2022/05/22 07:46:37;;;;;;;;;;;;;;;-140.72;100.00;52498.41;4938454;29;19962;-69
2022/05/22 07:49:02;;;;;;;;;;;;;;;-140.72;100.00;52496.38;4937222;29;19931;-69
2022/05/22 07:51:28;;;;;;;;;;;;;;;-140.72;100.00;52514.63;4921442;29;19954;-70
2022/05/22 07:53:53;;;;;;;;;;;;;;;-140.72;100.00;52461.88;4938615;29;19973;-70
2022/05/22 07:56:22;;;;;;;;;;;;;;;-140.72;100.00;52526.81;4937043;29;20439;-69
2022/05/22 07:58:48;;;;;;;;;;;;;;;-140.72;100.00;52502.47;4949878;29;19918;-68
2022/05/22 08:01:13;;;;;;;;;;;;;;;-140.72;100.00;52502.47;4957748;29;19922;-69
2022/05/22 08:03:38;;;;;;;;;;;;;;;-140.72;100.00;52449.72;4957261;29;19942;-69
2022/05/22 08:06:03;;;;;;;;;;;;;;;-140.72;100.00;52502.47;4940255;29;19925;-68
2022/05/22 08:08:29;;;;;;;;;;;;;;;-140.72;100.00;52467.97;4940078;29;19953;-69
2022/05/22 08:10:56;;;;;;;;;;;;;;;-140.72;100.00;52433.47;4939849;29;19918;-69
2022/05/22 08:13:21;;;;;;;;;;;;;;;-140.72;100.00;52429.41;4957261;29;19919;-68
2022/05/22 08:15:47;;;;;;;;;;;;;;;-140.72;100.00;52451.72;4939787;29;19919;-69
2022/05/22 08:18:12;;;;;;;;;;;;;;;-140.72;100.00;52425.34;4956600;29;19962;-69
2022/05/22 08:20:39;;;;;;;;;;;;;;;-140.72;100.00;52435.50;4939744;29;19923;-69
2022/05/22 08:23:06;;;;;;;;;;;;;;;-140.72;100.00;52439.56;4956533;28;20298;-68
2022/05/22 08:25:32;;;;;;;;;;;;;;;-140.72;100.00;52441.59;4956418;29;19922;-69
2022/05/22 08:27:58;;;;;;;;;;;;;;;-140.72;100.00;52439.56;4956923;29;19918;-71
2022/05/22 08:30:24;;;;;;;;;;;;;;;-140.72;100.00;52403.03;4956800;29;19973;-69
2022/05/22 08:32:50;;;;;;;;;;;;;;;-140.72;100.00;52374.63;4939762;29;20321;-70
2022/05/22 08:35:17;;;;;;;;;;;;;;;-140.72;100.00;52384.78;4956692;28;20016;-69
2022/05/22 08:37:43;;;;;;;;;;;;;;;-140.72;100.00;52405.06;4939443;29;19990;-68
2022/05/22 08:40:09;;;;;;;;;;;;;;;-140.72;100.00;52411.16;4956654;29;19919;-69
2022/05/22 08:43:10;;;;;;;;;;;;;;;-140.72;100.00;52382.75;4939219;29;19918;-69
2022/05/22 08:45:46;;;;;;;;;;;;;;;-140.72;100.00;52403.03;4878567;29;19972;-69
2022/05/22 08:48:29;;;;;;;;;;;;;;;-140.72;100.00;52370.56;4945488;29;19918;-68
2022/05/22 08:50:57;;;;;;;;;;;;;;;-140.72;100.00;52323.91;4956156;29;20013;-69
2022/05/22 08:53:28;;;;;;;;;;;;;;;-140.72;100.00;52327.97;4956338;29;19926;-68
2022/05/22 08:58:56;;;;;;;;;;;;;;;-140.72;100.00;52273.19;4956712;29;19968;-69
2022/05/22 09:01:40;;;;;;;;;;;;;;;-140.72;100.00;52297.53;4956380;29;19918;-69
2022/05/22 09:04:08;;;;;;;;;;;;;;;-140.72;100.00;52273.19;4956082;29;19919;-68
2022/05/22 09:06:43;;;;;;;;;;;;;;;-140.72;100.00;52299.56;4956285;29;19930;-69
2022/05/22 09:09:09;;;;;;;;;;;;;;;-140.72;100.00;52267.09;4939243;29;19969;-70
2022/05/22 09:11:45;;;;;;;;;;;;;;;-140.72;100.00;52265.06;4956128;29;20013;-69
2022/05/22 09:14:13;;;;;;;;;;;;;;;-140.72;100.00;52232.59;4954806;29;19989;-68
2022/05/22 09:17:02;;;;;;;;;;;;;;;-140.72;100.00;52244.78;4938494;29;19989;-70
2022/05/22 09:19:40;;;;;;;;;;;;;;;-140.72;100.00;52212.31;4928749;29;20306;-69
2022/05/22 09:22:05;;;;;;;;;;;;;;;-140.72;100.00;52187.97;4956011;29;19919;-71
2022/05/22 09:24:58;;;;;;;;;;;;;;;-140.72;100.00;52204.19;4938577;29;19918;-70
2022/05/22 09:27:23;;;;;;;;;;;;;;;-140.72;100.00;52194.03;4955939;29;20353;-70
2022/05/22 09:29:59;;;;;;;;;;;;;;;-140.72;100.00;52208.25;4955741;29;20013;-68
2022/05/22 09:32:43;;;;;;;;;;;;;;;-140.72;100.00;52175.78;4955591;29;20013;-69
2022/05/22 09:35:29;;;;;;;;;;;;;;;-140.72;100.00;52171.72;4955601;28;19923;-68
2022/05/22 09:38:00;;;;;;;;;;;;;;;-140.72;100.00;52159.56;4956015;29;20007;-68
2022/05/22 09:40:40;;;;;;;;;;;;;;;-140.72;100.00;52141.28;4955523;29;19972;-67
2022/05/22 09:43:06;;;;;;;;;;;;;;;-140.72;100.00;52161.56;4954186;29;19925;-69
2022/05/22 09:45:31;;;;;;;;;;;;;;;-140.72;100.00;52110.84;4955459;29;19922;-69
2022/05/22 09:48:12;;;;;;;;;;;;;;;-140.72;100.00;52129.13;4938130;29;19922;-70
2022/05/22 09:50:46;;;;;;;;;;;;;;;-140.72;100.00;52080.41;4955190;28;19922;-70
2022/05/22 09:53:27;;;;;;;;;;;;;;;-140.72;100.00;52141.28;4954156;29;19926;-70
2022/05/22 09:55:56;;;;;;;;;;;;;;;-140.72;100.00;52090.56;4937973;29;19919;-70
2022/05/22 09:58:40;;;;;;;;;;;;;;;-140.72;100.00;52060.13;4937764;29;19918;-70
2022/05/22 10:01:12;;;;;;;;;;;;;;;-140.72;100.00;52072.31;4955141;29;19965;-69
2022/05/22 10:03:50;;;;;;;;;;;;;;;-140.72;100.00;52003.31;4955152;29;19922;-70
2022/05/22 10:06:15;;;;;;;;;;;;;;;-140.72;100.00;52021.56;4955127;29;19919;-69
2022/05/22 10:08:40;;;;;;;;;;;;;;;-140.72;100.00;51995.19;4954942;29;19940;-70
2022/05/22 10:11:05;;;;;;;;;;;;;;;-140.72;100.00;51993.19;4955148;29;19978;-70
2022/05/22 10:13:30;;;;;;;;;;;;;;;-140.72;100.00;51972.88;4954850;29;19922;-67
2022/05/22 10:16:14;;;;;;;;;;;;;;;-140.72;100.00;51920.13;4954970;29;19918;-68
2022/05/22 10:18:42;;;;;;;;;;;;;;;-140.72;100.00;51968.81;4955067;29;19926;-68
2022/05/22 10:21:08;;;;;;;;;;;;;;;-140.72;100.00;51907.97;4954850;29;19945;-68
2022/05/22 10:23:36;;;;;;;;;;;;;;;-140.72;100.00;51989.13;4937654;29;20323;-68
2022/05/22 10:26:19;;;;;;;;;;;;;;;-140.72;100.00;51920.13;4954991;29;19926;-67
2022/05/22 10:28:48;;;;;;;;;;;;;;;-140.72;100.00;52045.94;4955057;29;20001;-68
2022/05/22 10:31:21;;;;;;;;;;;;;;;-140.72;100.00;52045.94;4955042;29;20386;-68
2022/05/22 10:34:24;;;;;;;;;;;;;;;-140.72;100.00;52023.59;4954612;28;20382;-68
2022/05/22 10:36:52;;;;;;;;;;;;;;;-140.72;100.00;52033.75;4877177;29;20325;-70
2022/05/22 10:39:19;;;;;;;;;;;;;;;-140.72;100.00;51987.09;4861713;29;19919;-68
2022/05/22 10:44:37;;;;;;;;;;;;;;;-140.72;100.00;51926.22;4955018;29;20330;-69
2022/05/22 10:47:02;;;;;;;;;;;;;;;-140.72;100.00;51869.41;4955971;28;19919;-69
2022/05/22 10:49:39;;;;;;;;;;;;;;;-140.72;96.92;51907.97;4941721;29;19966;-69
2022/05/22 10:52:04;;;;;;;;;;;;;;;-140.72;100.00;51885.66;4958807;29;19930;-69
2022/05/22 10:54:32;;;;;;;;;;;;;;;-140.72;100.00;51916.06;4958552;29;19946;-70
2022/05/22 10:57:07;;;;;;;;;;;;;;;-140.72;100.00;51855.22;4941444;29;19918;-69
2022/05/22 10:59:32;;;;;;;;;;;;;;;-140.72;100.00;51820.72;4925431;29;19977;-70
2022/05/22 11:02:03;;;;;;;;;;;;;;;-140.72;100.00;51832.91;4958461;29;19922;-69
2022/05/22 11:04:34;;;;;;;;;;;;;;;-140.72;99.06;51782.16;4958360;29;19982;-68
2022/05/22 11:07:00;;;;;;;;;;;;;;;-140.72;92.49;51784.19;4958418;29;20378;-69
2022/05/22 11:09:31;;;;;;;;;;;;;;;-140.72;85.85;51763.91;4941097;29;20366;-70
2022/05/22 11:12:07;;;;;;;;;;;;;;;-140.72;91.10;51895.78;4958302;29;19919;-70
2022/05/22 11:14:33;;;;;;;;;;;;;;;-140.72;100.00;51932.31;4958335;29;19927;-68
2022/05/22 11:17:10;;;;;;;;;;;;;;;-140.72;100.00;51916.06;4958128;29;19941;-69
2022/05/22 11:19:38;;;;;;;;;;;;;;;-140.72;100.00;51818.69;4958141;29;19926;-70
2022/05/22 11:22:07;;;;;;;;;;;;;;;-140.72;100.00;51794.34;4958095;29;19929;-69
2022/05/22 11:24:47;;;;;;;;;;;;;;;-140.72;85.36;51802.47;4940794;29;19919;-69
2022/05/22 11:27:31;;;;;;;;;;;;;;;-140.72;97.78;51792.31;4957834;29;19918;-70
2022/05/22 11:30:09;;;;;;;;;;;;;;;-140.72;94.95;51855.22;4940621;29;19970;-68
2022/05/22 11:32:43;;;;;;;;;;;;;;;-140.72;95.27;51822.75;4957878;29;19965;-68
2022/05/22 11:35:26;;;;;;;;;;;;;;;-140.72;86.07;51816.66;4956434;28;19922;-69
2022/05/22 11:37:57;;;;;;;;;;;;;;;-140.72;100.00;51857.25;4940753;29;19922;-69
2022/05/22 11:40:41;;;;;;;;;;;;;;;-140.72;89.51;51776.09;4940333;29;19919;-70
2022/05/22 11:43:15;;;;;;;;;;;;;;;-140.72;81.11;51776.09;4957716;29;19961;-67
2022/05/22 11:45:52;;;;;;;;;;;;;;;-140.72;88.09;51790.28;4957566;29;19919;-69
2022/05/22 11:48:30;;;;;;;;;;;;;;;-140.72;88.04;51741.59;4957640;29;19973;-68
2022/05/22 11:51:07;;;;;;;;;;;;;;;-140.72;80.89;51749.72;4957582;29;19986;-70
2022/05/22 11:53:44;;;;;;;;;;;;;;;-140.72;86.02;51749.72;4957705;29;19998;-67
2022/05/22 11:56:36;;;;;;;;;;;;;;;-140.72;78.94;51621.91;4940219;29;20110;-69
2022/05/22 11:59:11;;;;;;;;;;;;;;;-140.72;80.19;51668.56;4908081;29;19919;-69
2022/05/22 12:01:41;;;;;;;;;;;;;;;-140.72;90.76;51749.72;4921122;29;19923;-70
2022/05/22 12:04:09;;;;;;;;;;;;;;;-140.72;83.35;51757.81;4938003;29;19918;-68
2022/05/22 12:06:35;;;;;;;;;;;;;;;-140.72;79.35;51688.84;4938106;29;19966;-69
2022/05/22 12:09:00;;;;;;;;;;;;;;;-140.72;79.03;51727.41;4921092;29;19950;-69
2022/05/22 12:11:34;;;;;;;;;;;;;;;-140.72;91.76;51719.28;4937407;29;19985;-69
2022/05/22 12:14:16;;;;;;;;;;;;;;;-140.72;80.58;51650.31;4937516;29;19953;-69
2022/05/22 12:16:43;;;;;;;;;;;;;;;-140.72;73.20;51628.00;4920900;29;19919;-70
2022/05/22 12:19:35;;;;;;;;;;;;;;;-140.72;74.89;51684.78;4920674;29;19925;-70
2022/05/22 12:22:15;;;;;;;;;;;;;;;-140.72;83.25;51733.47;4936470;29;19919;-70
2022/05/22 12:24:46;;;;;;;;;;;;;;;-140.72;84.18;51672.63;4937894;29;19979;-70
2022/05/22 12:27:31;;;;;;;;;;;;;;;-140.72;81.53;51660.44;4920716;29;19926;-69
2022/05/22 12:30:08;;;;;;;;;;;;;;;-140.72;93.71;51784.19;4937870;29;19919;-69
2022/05/22 12:32:43;;;;;;;;;;;;;;;-140.72;83.43;51709.13;4921339;29;19974;-69
2022/05/22 12:35:08;;;;;;;;;;;;;;;-140.72;70.25;51749.72;4920357;29;20380;-69
2022/05/22 12:37:42;;;;;;;;;;;;;;;-140.72;78.73;51761.88;4937427;29;20062;-69
2022/05/22 12:40:31;;;;;;;;;;;;;;;-140.72;86.27;51745.66;4937587;29;19919;-69